createdAt,value
2023-04-12T00:00:52.812Z,100590.50
2023-04-12T00:03:21.083Z,100590.41
2023-04-12T00:05:54.320Z,100584.28
2023-04-12T00:08:26.284Z,100585.41
2023-04-12T00:10:52.773Z,100595.63
2023-04-12T00:13:19.730Z,100595.72
2023-04-12T00:15:46.410Z,100595.94
2023-04-12T00:18:13.037Z,100597.78
2023-04-12T00:20:39.488Z,100593.28
2023-04-12T00:23:06.780Z,100594.59
2023-04-12T00:25:33.376Z,100589.84
2023-04-12T00:27:59.825Z,100582.50
2023-04-12T00:30:26.463Z,100576.00
2023-04-12T00:32:52.971Z,100575.38
2023-04-12T00:35:19.574Z,100561.50
2023-04-12T00:37:46.306Z,100574.66
2023-04-12T00:40:13.058Z,100577.88
2023-04-12T00:42:39.608Z,100576.41
2023-04-12T00:45:06.948Z,100572.69
2023-04-12T00:47:35.984Z,100566.28
2023-04-12T00:50:04.466Z,100567.94
2023-04-12T00:52:34.132Z,100561.59
2023-04-12T00:55:05.161Z,100563.66
2023-04-12T00:57:36.698Z,100561.06
2023-04-12T01:00:05.831Z,100554.16
2023-04-12T01:02:33.451Z,100549.22
2023-04-12T01:05:00.823Z,100545.13
2023-04-12T01:08:07.373Z,100538.97
2023-04-12T01:10:39.831Z,100534.81
2023-04-12T01:13:09.537Z,100537.38
2023-04-12T01:15:45.405Z,100537.22
2023-04-12T01:18:19.778Z,100534.44
2023-04-12T01:21:01.497Z,100527.22
2023-04-12T01:23:50.288Z,100519.81
2023-04-12T01:26:44.323Z,100520.81
2023-04-12T01:29:16.219Z,100517.91
2023-04-12T01:31:57.257Z,100519.72
2023-04-12T01:34:26.448Z,100517.31
2023-04-12T01:36:53.916Z,100507.19
2023-04-12T01:39:20.763Z,100515.19
2023-04-12T01:41:49.015Z,100507.69
2023-04-12T01:44:18.911Z,100517.19
2023-04-12T01:46:47.331Z,100514.50
2023-04-12T01:49:16.125Z,100511.22
2023-04-12T01:51:53.786Z,100516.59
2023-04-12T01:54:24.671Z,100510.28
2023-04-12T01:56:58.703Z,100509.00
2023-04-12T01:59:42.186Z,100504.00
2023-04-12T02:02:09.666Z,100499.78
2023-04-12T02:04:37.952Z,100499.59
2023-04-12T02:07:04.493Z,100495.88
2023-04-12T02:09:36.023Z,100486.97
2023-04-12T02:12:02.336Z,100498.41
2023-04-12T02:14:31.408Z,100493.00
2023-04-12T02:16:58.564Z,100486.38
2023-04-12T02:19:25.118Z,100486.47
2023-04-12T02:21:52.372Z,100495.38
2023-04-12T02:24:18.821Z,100492.47
2023-04-12T02:26:46.049Z,100490.78
2023-04-12T02:29:12.510Z,100490.69
2023-04-12T02:31:39.278Z,100483.56
2023-04-12T02:34:06.294Z,100483.38
2023-04-12T02:36:33.132Z,100475.56
2023-04-12T02:38:59.538Z,100464.84
2023-04-12T02:41:26.053Z,100460.94
2023-04-12T02:43:52.497Z,100458.84
2023-04-12T02:46:22.135Z,100451.75
2023-04-12T02:48:49.429Z,100454.03
2023-04-12T02:51:15.880Z,100453.91
2023-04-12T02:53:42.773Z,100450.53
2023-04-12T02:56:09.568Z,100454.94
2023-04-12T02:58:37.128Z,100446.31
2023-04-12T03:01:07.416Z,100447.53
2023-04-12T03:03:35.249Z,100441.63
2023-04-12T03:06:02.151Z,100438.75
2023-04-12T03:08:28.594Z,100432.94
2023-04-12T03:10:55.369Z,100428.94
2023-04-12T03:13:21.839Z,100439.75
2023-04-12T03:15:49.579Z,100432.84
2023-04-12T03:18:17.153Z,100432.53
2023-04-12T03:20:46.018Z,100431.06
2023-04-12T03:23:13.841Z,100424.22
2023-04-12T03:25:41.037Z,100426.22
2023-04-12T03:28:07.557Z,100419.81
2023-04-12T03:30:33.946Z,100410.03
2023-04-12T03:33:00.766Z,100411.91
2023-04-12T03:35:27.373Z,100405.91
2023-04-12T03:37:53.792Z,100404.91
2023-04-12T03:40:20.315Z,100394.19
2023-04-12T03:42:46.738Z,100390.72
2023-04-12T03:45:13.279Z,100386.13
2023-04-12T03:47:39.778Z,100386.41
2023-04-12T03:52:37.397Z,100375.00
2023-04-12T03:55:05.728Z,100375.81
2023-04-12T03:57:32.149Z,100374.69
2023-04-12T03:59:58.552Z,100367.13
2023-04-12T04:02:25.465Z,100370.50
2023-04-12T04:04:52.108Z,100359.09
2023-04-12T04:07:18.545Z,100360.00
2023-04-12T04:09:45.243Z,100360.38
2023-04-12T04:12:11.814Z,100361.88
2023-04-12T04:14:38.227Z,100364.28
2023-04-12T04:17:04.642Z,100364.19
2023-04-12T04:19:31.165Z,100365.69
2023-04-12T04:21:57.892Z,100360.47
2023-04-12T04:24:25.116Z,100351.91
2023-04-12T04:26:54.271Z,100340.00
2023-04-12T04:29:20.881Z,100348.41
2023-04-12T04:31:47.556Z,100348.19
2023-04-12T04:34:14.220Z,100347.38
2023-04-12T04:36:41.556Z,100349.78
2023-04-12T04:39:08.109Z,100344.50
2023-04-12T04:41:39.082Z,100342.28
2023-04-12T04:44:11.609Z,100334.56
2023-04-12T04:46:38.595Z,100328.69
2023-04-12T04:49:06.036Z,100324.59
2023-04-12T04:51:32.640Z,100325.09
2023-04-12T04:53:59.322Z,100316.91
2023-04-12T04:56:26.206Z,100318.22
2023-04-12T04:58:54.097Z,100316.91
2023-04-12T05:01:25.968Z,100311.09
2023-04-12T05:03:52.624Z,100320.00
2023-04-12T05:06:19.112Z,100322.91
2023-04-12T05:08:45.727Z,100315.19
2023-04-12T05:11:12.178Z,100320.28
2023-04-12T05:13:38.604Z,100311.88
2023-04-12T05:16:08.789Z,100311.03
2023-04-12T05:18:35.783Z,100309.75
2023-04-12T05:21:05.917Z,100311.41
2023-04-12T05:23:36.088Z,100298.13
2023-04-12T05:26:02.630Z,100308.09
2023-04-12T05:28:29.399Z,100300.47
2023-04-12T05:30:55.903Z,100299.47
2023-04-12T05:33:22.323Z,100296.88
2023-04-12T05:35:48.778Z,100298.31
2023-04-12T05:38:15.596Z,100290.25
2023-04-12T05:40:43.987Z,100295.91
2023-04-12T05:43:14.261Z,100285.13
2023-04-12T05:45:41.643Z,100285.16
2023-04-12T05:48:08.534Z,100279.28
2023-04-12T05:50:35.308Z,100277.41
2023-04-12T05:53:02.207Z,100277.78
2023-04-12T05:55:29.289Z,100271.44
2023-04-12T05:57:55.730Z,100263.47
2023-04-12T06:00:23.340Z,100260.63
2023-04-12T06:02:50.492Z,100253.47
2023-04-12T06:05:17.705Z,100256.03
2023-04-12T06:07:48.367Z,100250.28
2023-04-12T06:10:19.243Z,100249.34
2023-04-12T06:12:45.728Z,100239.16
2023-04-12T06:15:12.185Z,100238.19
2023-04-12T06:17:38.995Z,100233.69
2023-04-12T06:20:08.376Z,100235.59
2023-04-12T06:22:35.600Z,100222.97
2023-04-12T06:25:02.386Z,100224.72
2023-04-12T06:27:28.826Z,100216.88
2023-04-12T06:29:55.492Z,100211.88
2023-04-12T06:32:22.240Z,100212.03
2023-04-12T06:34:48.733Z,100215.81
2023-04-12T06:37:15.977Z,100216.22
2023-04-12T06:39:42.571Z,100210.91
2023-04-12T06:42:09.009Z,100211.31
2023-04-12T06:44:35.634Z,100199.56
2023-04-12T06:47:02.158Z,100202.53
2023-04-12T06:49:28.655Z,100196.66
2023-04-12T06:51:55.256Z,100206.00
2023-04-12T06:54:21.761Z,100205.75
2023-04-12T06:56:48.196Z,100194.56
2023-04-12T06:59:14.720Z,100192.44
2023-04-12T07:01:43.273Z,100185.38
2023-04-12T07:04:10.417Z,100186.88
2023-04-12T07:06:36.934Z,100191.50
2023-04-12T07:09:03.989Z,100184.13
2023-04-12T07:11:31.648Z,100183.22
2023-04-12T07:13:59.157Z,100173.78
2023-04-12T07:16:25.911Z,100169.56
2023-04-12T07:18:52.398Z,100172.81
2023-04-12T07:21:18.996Z,100170.50
2023-04-12T07:23:46.779Z,100178.94
2023-04-12T07:26:13.268Z,100179.22
2023-04-12T07:28:39.725Z,100181.22
2023-04-12T07:31:06.936Z,100180.41
2023-04-12T07:33:35.892Z,100169.72
2023-04-12T07:36:03.298Z,100173.28
2023-04-12T07:38:29.853Z,100167.31
2023-04-12T07:40:56.863Z,100173.56
2023-04-12T07:43:23.763Z,100175.69
2023-04-12T07:45:50.494Z,100166.06
2023-04-12T07:48:17.012Z,100163.06
2023-04-12T07:50:43.873Z,100163.22
2023-04-12T07:53:24.663Z,100156.34
2023-04-12T07:55:51.510Z,100160.91
2023-04-12T07:58:19.000Z,100165.81
2023-04-12T08:00:46.592Z,100165.13
2023-04-12T08:03:14.873Z,100147.34
2023-04-12T08:05:42.017Z,100150.47
2023-04-12T08:08:11.979Z,100144.00
2023-04-12T08:10:39.388Z,100136.72
2023-04-12T08:13:06.739Z,100140.97
2023-04-12T08:15:33.494Z,100141.09
2023-04-12T08:18:00.022Z,100145.53
2023-04-12T08:20:26.500Z,100146.19
2023-04-12T08:22:54.464Z,100139.31
2023-04-12T08:25:21.428Z,100140.59
2023-04-12T08:27:49.774Z,100142.69
2023-04-12T08:30:17.291Z,100148.75
2023-04-12T08:32:44.758Z,100137.00
2023-04-12T08:35:12.047Z,100141.13
2023-04-12T08:37:38.801Z,100141.69
2023-04-12T08:40:07.073Z,100142.13
2023-04-12T08:42:37.828Z,100141.44
2023-04-12T08:45:08.524Z,100141.75
2023-04-12T08:47:37.699Z,100140.47
2023-04-12T08:50:08.248Z,100143.78
2023-04-12T08:52:36.084Z,100140.66
2023-04-12T08:55:06.832Z,100126.94
2023-04-12T08:57:35.571Z,100121.94
2023-04-12T09:00:03.824Z,100112.56
2023-04-12T09:02:30.439Z,100114.16
2023-04-12T09:04:58.474Z,100112.66
2023-04-12T09:07:28.108Z,100110.03
2023-04-12T09:09:55.456Z,100110.41
2023-04-12T09:12:24.144Z,100112.41
2023-04-12T09:15:11.850Z,100102.66
2023-04-12T09:17:39.310Z,100103.59
2023-04-12T09:20:24.903Z,100103.72
2023-04-12T09:22:54.145Z,100100.09
2023-04-12T09:25:36.302Z,100087.06
2023-04-12T09:28:05.755Z,100085.28
2023-04-12T09:30:41.703Z,100082.53
2023-04-12T09:33:13.090Z,100072.00
2023-04-12T09:35:39.635Z,100071.72
2023-04-12T09:38:12.481Z,100062.66
2023-04-12T09:40:39.262Z,100046.53
2023-04-12T09:43:06.987Z,100047.00
2023-04-12T09:45:38.889Z,100056.00
2023-04-12T09:48:06.942Z,100040.31
2023-04-12T09:50:33.838Z,100038.81
2023-04-12T09:53:13.461Z,100031.66
2023-04-12T09:55:39.927Z,100022.91
2023-04-12T09:58:06.665Z,100036.47
2023-04-12T10:00:34.437Z,100027.13
2023-04-12T10:03:01.850Z,100022.41
2023-04-12T10:05:29.292Z,100013.19
2023-04-12T10:08:22.830Z,100013.69
2023-04-12T10:10:49.387Z,100008.97
2023-04-12T10:13:17.509Z,100006.66
2023-04-12T10:15:46.647Z,100007.63
2023-04-12T10:18:14.247Z,100006.09
2023-04-12T10:20:43.928Z,99995.75
2023-04-12T10:23:10.876Z,99997.34
2023-04-12T10:25:39.311Z,99985.94
2023-04-12T10:28:19.849Z,99982.47
2023-04-12T10:30:49.344Z,99972.22
2023-04-12T10:33:17.695Z,99978.97
2023-04-12T10:35:56.856Z,99975.53
2023-04-12T10:38:26.654Z,99968.78
2023-04-12T10:41:17.923Z,99973.63
2023-04-12T10:43:48.622Z,99961.78
2023-04-12T10:46:40.199Z,99962.19
2023-04-12T10:49:11.541Z,99950.44
2023-04-12T10:51:38.383Z,99958.31
2023-04-12T10:54:07.956Z,99956.03
2023-04-12T10:56:35.509Z,99947.41
2023-04-12T10:59:03.950Z,99935.66
2023-04-12T11:01:31.589Z,99948.25
2023-04-12T11:04:20.335Z,99938.78
2023-04-12T11:07:03.355Z,99931.75
2023-04-12T11:09:39.406Z,99943.16
2023-04-12T11:12:06.594Z,99920.84
2023-04-12T11:14:49.589Z,99917.31
2023-04-12T11:17:16.703Z,99905.59
2023-04-12T11:19:50.856Z,99908.38
2023-04-12T11:22:20.535Z,99905.19
2023-04-12T11:24:52.251Z,99908.38
2023-04-12T11:27:22.375Z,99893.81
2023-04-12T11:29:55.382Z,99897.75
2023-04-12T11:32:24.168Z,99900.94
2023-04-12T11:34:51.002Z,99898.97
2023-04-12T11:37:21.623Z,99891.88
2023-04-12T11:39:51.368Z,99891.88
2023-04-12T11:42:19.990Z,99881.28
2023-04-12T11:44:57.350Z,99885.63
2023-04-12T11:47:27.647Z,99875.78
2023-04-12T11:49:56.886Z,99871.47
2023-04-12T11:52:33.576Z,99873.88
2023-04-12T11:55:06.342Z,99868.75
2023-04-12T11:57:34.209Z,99858.13
2023-04-12T12:00:01.635Z,99856.16
2023-04-12T12:02:32.882Z,99859.34
2023-04-12T12:05:01.906Z,99859.72
2023-04-12T12:07:28.813Z,99849.56
2023-04-12T12:09:55.698Z,99842.94
2023-04-12T12:12:23.740Z,99846.88
2023-04-12T12:14:50.269Z,99838.66
2023-04-12T12:17:17.288Z,99833.13
2023-04-12T12:19:45.492Z,99836.66
2023-04-12T12:22:20.553Z,99838.25
2023-04-12T12:24:55.308Z,99830.75
2023-04-12T12:27:33.938Z,99825.66
2023-04-12T12:30:02.328Z,99818.16
2023-04-12T12:32:37.093Z,99810.66
2023-04-12T12:35:09.263Z,99812.66
2023-04-12T12:37:36.376Z,99806.00
2023-04-12T12:40:11.050Z,99797.69
2023-04-12T12:42:43.421Z,99789.09
2023-04-12T12:45:10.230Z,99782.00
2023-04-12T12:47:46.583Z,99777.28
2023-04-12T12:50:14.167Z,99777.28
2023-04-12T12:52:40.682Z,99776.50
2023-04-12T12:55:07.717Z,99775.28
2023-04-12T12:57:35.600Z,99769.44
2023-04-12T13:00:02.032Z,99772.53
2023-04-12T13:02:28.623Z,99776.50
2023-04-12T13:04:55.538Z,99769.06
2023-04-12T13:07:22.170Z,99758.03
2023-04-12T13:09:49.482Z,99746.25
2023-04-12T13:12:16.109Z,99753.72
2023-04-12T13:14:42.612Z,99739.56
2023-04-12T13:17:09.064Z,99742.72
2023-04-12T13:19:35.834Z,99737.22
2023-04-12T13:22:02.270Z,99727.75
2023-04-12T13:24:28.784Z,99715.97
2023-04-12T13:26:55.252Z,99728.94
2023-04-12T13:29:21.704Z,99734.44
2023-04-12T13:31:48.229Z,99721.88
2023-04-12T13:34:14.761Z,99705.38
2023-04-12T13:36:41.189Z,99708.53
2023-04-12T13:39:07.655Z,99695.16
2023-04-12T13:41:34.161Z,99701.84
2023-04-12T13:44:01.502Z,99703.00
2023-04-12T13:46:28.065Z,99696.34
2023-04-12T13:48:54.549Z,99685.69
2023-04-12T13:51:21.017Z,99687.66
2023-04-12T13:53:47.658Z,99680.56
2023-04-12T13:56:15.811Z,99678.25
2023-04-12T13:58:42.893Z,99674.69
2023-04-12T14:01:09.827Z,99666.41
2023-04-12T14:03:36.642Z,99664.88
2023-04-12T14:06:03.470Z,99660.94
2023-04-12T14:08:30.059Z,99658.19
2023-04-12T14:10:56.456Z,99651.91
2023-04-12T14:13:23.224Z,99657.00
2023-04-12T14:15:54.037Z,99650.72
2023-04-12T14:18:23.796Z,99653.88
2023-04-12T14:20:54.762Z,99651.13
2023-04-12T14:25:50.837Z,99640.88
2023-04-12T14:28:18.200Z,99644.41
2023-04-12T14:30:44.732Z,99639.31
2023-04-12T14:33:12.132Z,99638.13
2023-04-12T14:35:38.626Z,99646.78
2023-04-12T14:38:05.949Z,99644.81
2023-04-12T14:40:32.449Z,99655.03
2023-04-12T14:42:58.966Z,99646.75
2023-04-12T14:45:26.944Z,99646.38
2023-04-12T14:47:54.392Z,99648.72
2023-04-12T14:50:21.712Z,99631.41
2023-04-12T14:52:49.052Z,99644.75
2023-04-12T14:55:17.463Z,99634.97
2023-04-12T14:57:44.429Z,99647.94
2023-04-12T15:00:17.229Z,99643.97
2023-04-12T15:02:45.947Z,99650.25
2023-04-12T15:05:12.797Z,99654.13
2023-04-12T15:07:39.343Z,99655.66
2023-04-12T15:10:06.723Z,99659.97
2023-04-12T15:12:36.166Z,99652.91
2023-04-12T15:15:06.229Z,99646.97
2023-04-12T15:17:34.153Z,99648.88
2023-04-12T15:20:08.904Z,99643.31
2023-04-12T15:22:36.325Z,99654.28
2023-04-12T15:25:04.119Z,99659.47
2023-04-12T15:27:31.737Z,99651.13
2023-04-12T15:30:09.766Z,99648.72
2023-04-12T15:32:42.381Z,99643.31
2023-04-12T15:35:25.358Z,99642.06
2023-04-12T15:37:52.466Z,99639.28
2023-04-12T15:40:21.179Z,99638.84
2023-04-12T15:42:47.598Z,99639.31
2023-04-12T15:45:14.084Z,99634.94
2023-04-12T15:47:40.612Z,99625.13
2023-04-12T15:50:08.124Z,99616.19
2023-04-12T15:52:36.022Z,99614.19
2023-04-12T15:55:05.301Z,99612.66
2023-04-12T15:57:32.844Z,99607.19
2023-04-12T15:59:59.789Z,99606.00
2023-04-12T16:02:26.740Z,99592.25
2023-04-12T16:04:55.842Z,99590.69
2023-04-12T16:07:22.679Z,99581.31
2023-04-12T16:09:49.437Z,99583.28
2023-04-12T16:12:15.959Z,99568.75
2023-04-12T16:14:42.419Z,99570.72
2023-04-12T16:17:08.947Z,99563.63
2023-04-12T16:19:35.406Z,99565.13
2023-04-12T16:22:02.069Z,99561.22
2023-04-12T16:24:28.621Z,99556.16
2023-04-12T16:26:55.329Z,99551.34
2023-04-12T16:29:22.183Z,99551.38
2023-04-12T16:31:48.804Z,99545.09
2023-04-12T16:34:15.728Z,99548.16
2023-04-12T16:36:42.954Z,99551.34
2023-04-12T16:39:11.275Z,99537.25
2023-04-12T16:41:37.798Z,99531.72
2023-04-12T16:44:04.242Z,99537.97
2023-04-12T16:46:30.963Z,99532.44
2023-04-12T16:48:59.137Z,99523.81
2023-04-12T16:51:26.990Z,99526.09
2023-04-12T16:53:53.537Z,99511.97
2023-04-12T16:56:20.387Z,99517.41
2023-04-12T16:58:48.765Z,99505.25
2023-04-12T17:01:17.118Z,99510.31
2023-04-12T17:03:45.318Z,99515.03
2023-04-12T17:06:11.877Z,99503.28
2023-04-12T17:08:38.402Z,99498.59
2023-04-12T17:11:05.108Z,99501.31
2023-04-12T17:13:31.606Z,99497.38
2023-04-12T17:15:58.202Z,99497.75
2023-04-12T17:18:24.667Z,99498.19
2023-04-12T17:20:51.175Z,99488.34
2023-04-12T17:23:17.710Z,99484.81
2023-04-12T17:25:44.301Z,99483.19
2023-04-12T17:28:10.755Z,99485.50
2023-04-12T17:30:37.401Z,99485.91
2023-04-12T17:33:04.102Z,99481.97
2023-04-12T17:35:31.171Z,99475.66
2023-04-12T17:37:57.625Z,99475.69
2023-04-12T17:40:24.170Z,99475.31
2023-04-12T17:42:50.902Z,99465.47
2023-04-12T17:45:18.496Z,99464.19
2023-04-12T17:47:45.003Z,99463.50
2023-04-12T17:50:12.100Z,99458.75
2023-04-12T17:52:38.923Z,99457.63
2023-04-12T17:55:07.547Z,99455.25
2023-04-12T17:57:34.110Z,99445.06
2023-04-12T18:00:00.800Z,99445.44
2023-04-12T18:02:27.709Z,99452.47
2023-04-12T18:04:54.637Z,99445.34
2023-04-12T18:07:21.301Z,99445.75
2023-04-12T18:09:48.164Z,99441.84
2023-04-12T18:12:14.779Z,99432.78
2023-04-12T18:14:41.194Z,99442.16
2023-04-12T18:17:08.314Z,99444.13
2023-04-12T18:19:36.090Z,99448.47
2023-04-12T18:22:02.755Z,99442.63
2023-04-12T18:24:29.235Z,99441.09
2023-04-12T18:26:57.059Z,99435.56
2023-04-12T18:29:23.744Z,99431.25
2023-04-12T18:31:50.698Z,99436.75
2023-04-12T18:34:19.030Z,99425.34
2023-04-12T18:36:45.765Z,99418.69
2023-04-12T18:39:12.307Z,99419.06
2023-04-12T18:41:40.959Z,99425.34
2023-04-12T18:44:13.309Z,99419.06
2023-04-12T18:46:40.419Z,99425.78
2023-04-12T18:49:09.009Z,99417.56
2023-04-12T18:51:36.040Z,99422.31
2023-04-12T18:54:02.571Z,99430.06
2023-04-12T18:56:29.076Z,99435.50
2023-04-12T18:58:56.992Z,99432.44
2023-04-12T19:01:24.713Z,99426.16
2023-04-12T19:03:51.992Z,99422.66
2023-04-12T19:06:18.772Z,99421.50
2023-04-12T19:08:45.594Z,99415.63
2023-04-12T19:11:12.228Z,99426.16
2023-04-12T19:13:38.947Z,99424.25
2023-04-12T19:16:09.083Z,99415.66
2023-04-12T19:18:36.198Z,99411.66
2023-04-12T19:21:03.561Z,99418.75
2023-04-12T19:23:30.838Z,99406.59
2023-04-12T19:25:59.818Z,99410.09
2023-04-12T19:28:27.173Z,99390.97
2023-04-12T19:30:53.772Z,99402.34
2023-04-12T19:33:20.664Z,99394.13
2023-04-12T19:35:47.632Z,99392.19
2023-04-12T19:38:15.690Z,99390.91
2023-04-12T19:40:42.698Z,99404.28
2023-04-12T19:43:09.249Z,99391.78
2023-04-12T19:45:35.975Z,99387.88
2023-04-12T19:48:03.027Z,99392.19
2023-04-12T19:50:30.912Z,99392.53
2023-04-12T19:52:57.521Z,99389.44
2023-04-12T19:55:25.218Z,99384.38
2023-04-12T19:57:52.252Z,99386.72
2023-04-12T20:00:23.276Z,99385.09
2023-04-12T20:02:52.686Z,99385.94
2023-04-12T20:05:24.104Z,99376.94
2023-04-12T20:07:52.645Z,99380.41
2023-04-12T20:10:20.014Z,99379.25
2023-04-12T20:12:46.596Z,99376.50
2023-04-12T20:15:13.613Z,99374.88
2023-04-12T20:17:41.450Z,99380.72
2023-04-12T20:20:15.382Z,99380.41
2023-04-12T20:22:43.313Z,99371.41
2023-04-12T20:25:10.774Z,99369.75
2023-04-12T20:27:38.631Z,99360.06
2023-04-12T20:30:06.412Z,99355.31
2023-04-12T20:32:34.398Z,99359.69
2023-04-12T20:35:01.313Z,99356.16
2023-04-12T20:37:27.955Z,99351.41
2023-04-12T20:39:54.422Z,99355.72
2023-04-12T20:42:22.743Z,99352.19
2023-04-12T20:44:49.344Z,99345.19
2023-04-12T20:47:16.061Z,99342.47
2023-04-12T20:49:43.644Z,99338.53
2023-04-12T20:52:10.893Z,99340.03
2023-04-12T20:54:37.480Z,99341.66
2023-04-12T20:57:04.395Z,99335.34
2023-04-12T20:59:31.973Z,99341.53
2023-04-12T21:01:59.213Z,99335.69
2023-04-12T21:04:27.811Z,99332.97
2023-04-12T21:06:57.752Z,99329.06
2023-04-12T21:09:24.717Z,99337.66
2023-04-12T21:11:52.523Z,99325.44
2023-04-12T21:14:20.540Z,99329.69
2023-04-12T21:16:50.738Z,99328.97
2023-04-12T21:19:18.453Z,99327.00
2023-04-12T21:21:46.006Z,99328.22
2023-04-12T21:24:13.091Z,99336.81
2023-04-12T21:26:40.158Z,99338.41
2023-04-12T21:29:06.626Z,99324.28
2023-04-12T21:31:33.208Z,99326.94
2023-04-12T21:33:59.848Z,99338.69
2023-04-12T21:36:30.201Z,99341.88
2023-04-12T21:38:58.858Z,99349.31
2023-04-12T21:41:25.903Z,99340.69
2023-04-12T21:43:52.731Z,99336.78
2023-04-12T21:46:19.757Z,99328.13
2023-04-12T21:48:46.441Z,99329.69
2023-04-12T21:51:13.023Z,99332.81
2023-04-12T21:53:39.514Z,99330.91
2023-04-12T21:56:06.447Z,99333.94
2023-04-12T21:58:33.409Z,99334.00
2023-04-12T22:00:59.941Z,99339.09
2023-04-12T22:03:27.186Z,99322.25
2023-04-12T22:06:03.423Z,99321.09
2023-04-12T22:08:32.688Z,99322.31
2023-04-12T22:11:00.178Z,99312.91
2023-04-12T22:13:27.008Z,99312.06
2023-04-12T22:15:53.617Z,99309.00
2023-04-12T22:18:20.446Z,99310.91
2023-04-12T22:20:47.802Z,99301.09
2023-04-12T22:23:17.802Z,99309.19
2023-04-12T22:25:45.526Z,99300.69
2023-04-12T22:28:12.230Z,99308.13
2023-04-12T22:30:38.938Z,99314.78
2023-04-12T22:33:05.457Z,99325.75
2023-04-12T22:35:31.855Z,99322.59
2023-04-12T22:37:58.320Z,99321.06
2023-04-12T22:40:24.810Z,99321.78
2023-04-12T22:42:51.255Z,99317.50
2023-04-12T22:45:18.073Z,99319.84
2023-04-12T22:47:45.417Z,99321.72
2023-04-12T22:50:12.897Z,99311.53
2023-04-12T22:52:40.374Z,99313.63
2023-04-12T22:55:08.712Z,99320.66
2023-04-12T22:57:36.112Z,99319.47
2023-04-12T23:00:05.680Z,99314.75
2023-04-12T23:02:33.405Z,99312.81
2023-04-12T23:05:00.437Z,99309.50
2023-04-12T23:07:29.847Z,99309.88
2023-04-12T23:09:57.215Z,99297.81
2023-04-12T23:12:24.427Z,99294.34
2023-04-12T23:14:50.997Z,99303.38
2023-04-12T23:17:19.664Z,99301.22
2023-04-12T23:19:46.455Z,99294.66
2023-04-12T23:22:22.511Z,99283.75
2023-04-12T23:24:50.523Z,99275.50
2023-04-12T23:27:16.926Z,99280.66
2023-04-12T23:29:43.410Z,99268.47
2023-04-12T23:32:10.401Z,99267.31
2023-04-12T23:34:36.924Z,99265.78
2023-04-12T23:37:03.456Z,99263.47
2023-04-12T23:39:31.289Z,99268.81
2023-04-12T23:41:57.701Z,99277.78
2023-04-12T23:44:24.926Z,99278.59
2023-04-12T23:46:51.449Z,99276.63
2023-04-12T23:49:17.885Z,99272.66
2023-04-12T23:51:44.445Z,99262.88
2023-04-12T23:54:11.164Z,99260.41
2023-04-12T23:56:37.611Z,99263.53
2023-04-12T23:59:04.122Z,99261.13
